Time;durP1;ratioP1;P1;durP2;ratioP2;P2;SDS_P1;SDS_P2;PMS_P1;PMS_P2;Temp;Humidity;BMP_temperature;BMP_pressure;BME280_temperature;BME280_humidity;BME280_pressure;Samples;Min_cycle;Max_cycle;Signal;HPM_P1;HPM_P2
2022/07/24 00:00:59;;;;;;;5.20;4.03;;;13.00;87.80;;;;;;5048113;28;20036;-50
2022/07/24 00:03:27;;;;;;;7.90;4.18;;;13.00;87.80;;;;;;5047733;28;20040;-45
2022/07/24 00:05:53;;;;;;;6.50;4.22;;;13.00;87.90;;;;;;5047863;28;20029;-45
2022/07/24 00:08:20;;;;;;;3.97;3.20;;;13.00;87.90;;;;;;5047654;28;20074;-45
2022/07/24 00:10:47;;;;;;;5.82;3.78;;;13.00;87.90;;;;;;5046967;28;20391;-45
2022/07/24 00:13:14;;;;;;;5.72;4.10;;;12.90;87.90;;;;;;5047057;28;20049;-45
2022/07/24 00:15:41;;;;;;;5.00;4.18;;;13.00;87.90;;;;;;5047166;28;20029;-45
2022/07/24 00:18:10;;;;;;;6.18;4.20;;;13.00;87.90;;;;;;5047146;28;20541;-45
2022/07/24 00:20:37;;;;;;;6.90;4.77;;;13.00;88.00;;;;;;5050353;28;20029;-46
2022/07/24 00:23:04;;;;;;;5.10;4.10;;;13.00;88.00;;;;;;5049550;28;20125;-45
2022/07/24 00:25:31;;;;;;;4.97;4.47;;;13.00;88.00;;;;;;5050485;28;20033;-45
2022/07/24 00:27:58;;;;;;;9.57;4.60;;;13.10;88.10;;;;;;5050467;28;20024;-46
2022/07/24 00:30:26;;;;;;;7.13;5.82;;;13.10;88.20;;;;;;5050694;28;20017;-44
2022/07/24 00:32:55;;;;;;;6.13;5.03;;;13.10;88.30;;;;;;5032857;28;20021;-47
2022/07/24 00:35:22;;;;;;;7.37;5.23;;;13.20;88.30;;;;;;5050626;28;20033;-47
2022/07/24 00:37:49;;;;;;;7.35;6.05;;;13.20;88.40;;;;;;5032837;28;20025;-44
2022/07/24 00:40:16;;;;;;;8.88;6.03;;;13.20;88.60;;;;;;5050394;28;20021;-45
2022/07/24 00:42:43;;;;;;;6.70;5.25;;;13.20;88.60;;;;;;5049176;28;20055;-45
2022/07/24 00:45:10;;;;;;;9.63;6.03;;;13.30;88.70;;;;;;5050150;28;20119;-46
2022/07/24 00:47:37;;;;;;;6.82;5.10;;;13.30;88.80;;;;;;5033504;28;20049;-45
2022/07/24 00:50:05;;;;;;;9.50;6.20;;;13.40;88.90;;;;;;5029387;28;20029;-45
2022/07/24 00:52:32;;;;;;;6.72;5.32;;;13.40;88.90;;;;;;5030333;28;20029;-45
2022/07/24 00:54:59;;;;;;;7.15;6.30;;;13.50;89.00;;;;;;5030142;28;20047;-45
2022/07/24 00:57:28;;;;;;;8.25;5.93;;;13.50;89.00;;;;;;5029602;28;20044;-47
2022/07/24 00:59:55;;;;;;;6.80;4.93;;;13.60;89.10;;;;;;5029810;28;20113;-44
2022/07/24 01:02:21;;;;;;;6.90;6.20;;;13.60;89.10;;;;;;5029757;28;20048;-44
2022/07/24 01:04:51;;;;;;;9.75;6.15;;;13.70;89.30;;;;;;5028647;28;20378;-44
2022/07/24 01:07:16;;;;;;;8.02;6.53;;;13.60;89.20;;;;;;5029580;28;20026;-45
2022/07/24 01:09:45;;;;;;;10.43;7.15;;;13.70;89.10;;;;;;5028758;28;20382;-45
2022/07/24 01:12:13;;;;;;;8.50;7.50;;;13.70;89.20;;;;;;5029926;28;20021;-44
2022/07/24 01:14:39;;;;;;;10.68;7.43;;;13.70;89.40;;;;;;5029965;28;20072;-45
2022/07/24 01:17:06;;;;;;;11.15;8.00;;;13.70;89.50;;;;;;5029494;28;20025;-45
2022/07/24 01:19:33;;;;;;;7.90;7.13;;;13.80;89.50;;;;;;5028930;28;20029;-45
2022/07/24 01:22:00;;;;;;;7.72;6.72;;;13.70;89.40;;;;;;5029910;28;20045;-44
2022/07/24 01:24:27;;;;;;;8.55;7.10;;;13.80;89.40;;;;;;5012375;28;20135;-44
2022/07/24 01:26:54;;;;;;;8.25;7.05;;;13.80;89.40;;;;;;5029433;28;20209;-46
2022/07/24 01:29:21;;;;;;;10.90;7.35;;;13.80;89.20;;;;;;5028678;28;20033;-45
2022/07/24 01:31:50;;;;;;;9.93;7.38;;;13.80;89.00;;;;;;5028994;28;20025;-45
2022/07/24 01:34:17;;;;;;;10.73;7.23;;;13.90;89.00;;;;;;5029795;28;20021;-45
2022/07/24 01:36:44;;;;;;;10.05;6.65;;;13.90;88.80;;;;;;5029455;28;20029;-44
2022/07/24 01:39:11;;;;;;;8.75;6.22;;;13.90;88.60;;;;;;5029561;28;20033;-44
2022/07/24 01:41:36;;;;;;;6.78;5.63;;;13.90;88.60;;;;;;5011665;28;20052;-44
2022/07/24 01:44:04;;;;;;;7.13;5.20;;;13.90;88.30;;;;;;5029230;28;20116;-46
2022/07/24 01:46:29;;;;;;;8.77;5.43;;;13.90;88.20;;;;;;5028226;28;20056;-44
2022/07/24 01:48:56;;;;;;;5.53;4.80;;;13.90;88.20;;;;;;5029751;28;20335;-44
2022/07/24 01:51:23;;;;;;;8.80;5.82;;;13.90;88.10;;;;;;5029302;28;20021;-44
2022/07/24 01:53:48;;;;;;;8.25;5.95;;;13.90;88.00;;;;;;5029031;28;20326;-45
2022/07/24 01:56:15;;;;;;;7.18;5.93;;;13.90;88.00;;;;;;5029343;28;20029;-43
2022/07/24 01:58:42;;;;;;;6.72;5.88;;;13.90;87.60;;;;;;5011710;28;20048;-44
2022/07/24 02:01:09;;;;;;;7.60;5.97;;;13.90;87.60;;;;;;5029025;28;20025;-46
2022/07/24 02:03:36;;;;;;;6.50;5.85;;;13.90;87.50;;;;;;5029377;28;20365;-45
2022/07/24 02:06:03;;;;;;;9.25;5.60;;;13.90;87.40;;;;;;5029455;28;20518;-45
2022/07/24 02:08:30;;;;;;;5.60;4.88;;;13.90;87.30;;;;;;5029580;28;20076;-45
2022/07/24 02:10:56;;;;;;;8.88;6.15;;;13.90;87.10;;;;;;5029758;28;20451;-44
2022/07/24 02:13:26;;;;;;;6.72;4.90;;;13.90;86.90;;;;;;5029516;28;20080;-46
2022/07/24 02:15:53;;;;;;;7.28;5.93;;;13.90;87.00;;;;;;5029399;28;20057;-45
2022/07/24 02:18:22;;;;;;;11.38;6.22;;;13.90;87.00;;;;;;5029235;28;20029;-44
2022/07/24 02:20:51;;;;;;;8.70;6.03;;;13.80;86.80;;;;;;5028282;28;20249;-44
2022/07/24 02:23:19;;;;;;;8.52;6.15;;;13.90;86.90;;;;;;5029491;28;20394;-45
2022/07/24 02:25:49;;;;;;;6.97;5.93;;;13.90;87.10;;;;;;5029411;28;20051;-45
2022/07/24 02:28:17;;;;;;;8.15;5.82;;;13.90;87.10;;;;;;5028945;28;20151;-45
2022/07/24 02:30:43;;;;;;;9.38;6.25;;;13.90;87.00;;;;;;5028889;28;20025;-45
2022/07/24 02:33:11;;;;;;;7.75;5.53;;;13.90;86.90;;;;;;5028893;28;20358;-45
2022/07/24 02:35:38;;;;;;;7.95;6.25;;;13.90;86.80;;;;;;5028680;28;20108;-45
2022/07/24 02:38:05;;;;;;;7.07;6.10;;;13.90;86.90;;;;;;5011439;28;21020;-43
2022/07/24 02:40:31;;;;;;;10.20;6.53;;;13.90;86.80;;;;;;5028521;28;20065;-43
2022/07/24 02:43:03;;;;;;;8.63;7.10;;;13.90;86.90;;;;;;5028407;28;20099;-44
2022/07/24 02:45:30;;;;;;;7.47;6.68;;;13.90;87.00;;;;;;5028260;28;20080;-45
2022/07/24 02:48:00;;;;;;;10.80;6.43;;;13.90;86.90;;;;;;5010675;28;20049;-44
2022/07/24 02:50:35;;;;;;;7.80;6.88;;;13.90;86.90;;;;;;5028410;28;20018;-44
2022/07/24 02:53:02;;;;;;;10.25;7.40;;;13.90;86.90;;;;;;5027449;28;20393;-44
2022/07/24 02:55:28;;;;;;;8.32;6.45;;;13.90;86.80;;;;;;5029126;28;20032;-44
2022/07/24 02:57:55;;;;;;;9.13;6.93;;;13.90;86.80;;;;;;5028702;28;20110;-44
2022/07/24 03:00:22;;;;;;;10.30;7.43;;;13.80;86.80;;;;;;5028882;28;20029;-44
2022/07/24 03:02:50;;;;;;;8.95;6.63;;;13.90;86.90;;;;;;5029057;28;20051;-44
2022/07/24 03:05:17;;;;;;;9.07;6.68;;;13.90;86.80;;;;;;5028912;28;20043;-46
2022/07/24 03:07:44;;;;;;;7.93;6.47;;;13.90;86.90;;;;;;5028762;28;20064;-44
2022/07/24 03:10:14;;;;;;;9.88;7.95;;;13.80;86.80;;;;;;5029193;28;20040;-44
2022/07/24 03:12:42;;;;;;;9.55;7.15;;;13.90;86.70;;;;;;5028666;28;20025;-46
2022/07/24 03:15:11;;;;;;;9.48;6.10;;;13.90;86.80;;;;;;5044512;28;20040;-43
2022/07/24 03:17:38;;;;;;;10.57;6.93;;;13.90;86.70;;;;;;5011378;28;20037;-44
2022/07/24 03:20:06;;;;;;;10.18;6.38;;;13.90;86.80;;;;;;5028765;28;20461;-44
2022/07/24 03:22:35;;;;;;;7.82;6.45;;;13.90;86.70;;;;;;5028692;28;20033;-44
2022/07/24 03:25:04;;;;;;;10.20;6.88;;;13.90;86.70;;;;;;5028951;28;20063;-44
2022/07/24 03:27:31;;;;;;;7.30;6.60;;;13.90;86.80;;;;;;5027416;28;20029;-46
2022/07/24 03:29:57;;;;;;;8.70;6.28;;;13.80;86.80;;;;;;5011396;28;20023;-44
2022/07/24 03:32:24;;;;;;;9.05;6.50;;;13.90;87.00;;;;;;5027680;28;20341;-45
2022/07/24 03:34:50;;;;;;;10.20;5.88;;;13.90;87.10;;;;;;5043927;28;20040;-44
2022/07/24 03:37:17;;;;;;;11.15;6.57;;;13.90;87.00;;;;;;5011440;28;20335;-44
2022/07/24 03:39:44;;;;;;;8.80;6.20;;;13.90;86.80;;;;;;5028493;28;20025;-44
2022/07/24 03:42:11;;;;;;;9.20;5.78;;;13.90;86.80;;;;;;5028500;28;20087;-46
2022/07/24 03:44:39;;;;;;;9.27;5.78;;;13.90;86.80;;;;;;5027226;28;20067;-44
2022/07/24 03:47:08;;;;;;;7.57;5.43;;;13.90;86.80;;;;;;5043664;28;20053;-44
2022/07/24 03:49:36;;;;;;;9.27;5.68;;;13.90;87.00;;;;;;5028338;28;20038;-43
2022/07/24 03:52:03;;;;;;;6.85;5.22;;;13.90;86.80;;;;;;5028188;28;20014;-44
2022/07/24 03:54:30;;;;;;;9.38;5.13;;;13.90;86.90;;;;;;5012490;28;20033;-45
2022/07/24 03:56:57;;;;;;;6.03;4.80;;;13.90;86.90;;;;;;5014710;28;20032;-44
2022/07/24 03:59:24;;;;;;;9.30;4.93;;;13.90;86.70;;;;;;5032180;28;20033;-45
2022/07/24 04:01:49;;;;;;;8.45;5.00;;;14.00;86.80;;;;;;5031990;28;20351;-45
2022/07/24 04:04:16;;;;;;;7.30;4.60;;;14.00;86.80;;;;;;5032114;28;20029;-47
2022/07/24 04:06:43;;;;;;;6.40;4.90;;;14.00;86.60;;;;;;5031706;28;20022;-44
2022/07/24 04:09:13;;;;;;;6.25;5.20;;;14.10;86.80;;;;;;5030600;28;20113;-43
2022/07/24 04:11:40;;;;;;;5.57;4.53;;;14.10;86.60;;;;;;5032229;28;20022;-45
2022/07/24 04:14:11;;;;;;;5.75;4.85;;;14.10;86.50;;;;;;5031922;28;20076;-45
2022/07/24 04:16:38;;;;;;;7.50;4.80;;;14.10;86.60;;;;;;5031353;28;20029;-45
2022/07/24 04:19:04;;;;;;;5.85;4.75;;;14.20;86.50;;;;;;5031995;28;20044;-45
2022/07/24 04:21:31;;;;;;;7.00;5.35;;;14.20;86.60;;;;;;5030736;28;20029;-45
2022/07/24 04:23:58;;;;;;;9.13;5.32;;;14.30;86.40;;;;;;5014239;28;20032;-45
2022/07/24 04:26:26;;;;;;;10.48;5.43;;;14.30;86.40;;;;;;5030649;28;20432;-44
2022/07/24 04:28:53;;;;;;;8.75;5.00;;;14.30;86.50;;;;;;5030123;28;20036;-45
2022/07/24 04:31:20;;;;;;;5.63;3.45;;;14.30;86.40;;;;;;5046808;28;20473;-45
2022/07/24 04:33:46;;;;;;;6.20;5.28;;;14.40;86.60;;;;;;5031603;28;20036;-45
2022/07/24 04:36:12;;;;;;;8.50;5.03;;;14.40;86.50;;;;;;5030680;28;20030;-45
2022/07/24 04:38:42;;;;;;;6.22;4.97;;;14.40;86.50;;;;;;5031369;28;20474;-45
2022/07/24 04:41:10;;;;;;;6.85;4.65;;;14.40;86.30;;;;;;5031362;28;20660;-45
2022/07/24 04:43:37;;;;;;;5.75;4.65;;;14.50;86.20;;;;;;5030254;28;20053;-45
2022/07/24 04:46:03;;;;;;;6.32;4.53;;;14.60;86.10;;;;;;5033423;28;20044;-47
2022/07/24 04:48:32;;;;;;;7.18;4.35;;;14.60;86.10;;;;;;5050904;28;20059;-44
2022/07/24 04:50:59;;;;;;;5.43;4.45;;;14.70;86.10;;;;;;5066414;28;20044;-46
2022/07/24 04:53:26;;;;;;;9.18;4.85;;;14.80;86.00;;;;;;5050674;28;20346;-45
2022/07/24 04:55:53;;;;;;;5.55;3.88;;;14.80;86.00;;;;;;5051533;28;20029;-46
2022/07/24 04:58:20;;;;;;;6.55;4.43;;;14.80;85.90;;;;;;5050555;28;20029;-45
2022/07/24 05:00:47;;;;;;;4.90;4.20;;;14.90;85.80;;;;;;5051291;28;20774;-45
2022/07/24 05:03:15;;;;;;;6.30;4.80;;;14.90;85.80;;;;;;5051490;28;20053;-45
2022/07/24 05:05:42;;;;;;;7.20;4.43;;;14.90;85.70;;;;;;5050290;28;20033;-45
2022/07/24 05:08:11;;;;;;;11.65;4.63;;;14.90;85.40;;;;;;5051906;28;20092;-45
2022/07/24 05:10:38;;;;;;;6.35;4.90;;;15.00;85.30;;;;;;5051484;28;20031;-45
2022/07/24 05:13:05;;;;;;;6.95;4.53;;;15.00;85.20;;;;;;5051447;28;20151;-45
2022/07/24 05:15:32;;;;;;;7.07;5.00;;;15.10;85.30;;;;;;5051367;28;20026;-45
2022/07/24 05:18:01;;;;;;;5.60;5.00;;;15.20;85.20;;;;;;5051648;28;20684;-46
2022/07/24 05:20:27;;;;;;;5.60;5.03;;;15.30;84.90;;;;;;5050363;28;20339;-45
2022/07/24 05:22:53;;;;;;;6.70;4.80;;;15.40;84.80;;;;;;5033703;28;20028;-46
2022/07/24 05:25:18;;;;;;;4.97;4.47;;;15.40;84.70;;;;;;5051062;28;20033;-46
2022/07/24 05:27:45;;;;;;;7.65;5.10;;;15.50;84.70;;;;;;5051199;28;20028;-45
2022/07/24 05:30:12;;;;;;;7.40;4.72;;;15.60;84.30;;;;;;5050965;28;20430;-45
2022/07/24 05:32:39;;;;;;;5.57;4.68;;;15.70;84.00;;;;;;5049987;28;20029;-45
2022/07/24 05:35:05;;;;;;;7.28;4.90;;;15.80;84.00;;;;;;5050997;28;20070;-46
2022/07/24 05:37:32;;;;;;;8.05;5.30;;;15.90;83.90;;;;;;5051118;28;20044;-45
2022/07/24 05:40:01;;;;;;;8.80;4.88;;;15.90;83.70;;;;;;5050779;28;20033;-45
2022/07/24 05:42:27;;;;;;;8.85;4.85;;;16.00;83.50;;;;;;5049779;28;20471;-46
2022/07/24 05:44:54;;;;;;;6.82;4.45;;;16.10;83.60;;;;;;5050817;28;20114;-46
2022/07/24 05:47:26;;;;;;;6.13;4.63;;;16.20;83.50;;;;;;5050387;28;20474;-46
2022/07/24 05:49:52;;;;;;;7.25;5.05;;;16.30;82.80;;;;;;5050585;28;20319;-45
2022/07/24 05:52:18;;;;;;;8.00;4.90;;;16.40;82.70;;;;;;5050655;28;20100;-46
2022/07/24 05:54:45;;;;;;;6.30;5.20;;;16.50;82.40;;;;;;5049774;28;20098;-45
2022/07/24 05:57:12;;;;;;;6.55;4.30;;;16.60;81.90;;;;;;5050460;28;20021;-45
2022/07/24 05:59:39;;;;;;;5.88;4.30;;;16.60;81.60;;;;;;5050610;28;20113;-48
2022/07/24 06:02:06;;;;;;;6.13;4.30;;;16.50;81.60;;;;;;5050409;28;20021;-45
2022/07/24 06:04:35;;;;;;;4.85;4.07;;;16.60;81.80;;;;;;5049440;28;20020;-45
2022/07/24 06:07:02;;;;;;;8.23;4.70;;;16.80;82.10;;;;;;5050408;28;20025;-45
2022/07/24 06:09:31;;;;;;;7.30;5.03;;;16.90;81.50;;;;;;5050126;28;20025;-46
2022/07/24 06:11:58;;;;;;;6.97;4.47;;;17.10;80.80;;;;;;5065702;28;20399;-47
2022/07/24 06:14:28;;;;;;;7.15;4.55;;;17.20;80.10;;;;;;5066138;28;20053;-46
2022/07/24 06:16:54;;;;;;;7.13;4.15;;;17.30;80.20;;;;;;5048974;28;20020;-45
2022/07/24 06:19:23;;;;;;;4.95;3.83;;;17.30;80.10;;;;;;5050180;28;20025;-45
2022/07/24 06:21:50;;;;;;;7.00;3.85;;;17.30;80.00;;;;;;5050320;28;20331;-47
2022/07/24 06:24:17;;;;;;;4.40;3.92;;;17.40;80.10;;;;;;5050107;28;20025;-45
2022/07/24 06:26:44;;;;;;;6.70;4.35;;;17.40;80.30;;;;;;5065729;28;20086;-45
2022/07/24 06:29:11;;;;;;;5.97;3.85;;;17.50;80.10;;;;;;5049955;28;20024;-46
2022/07/24 06:31:40;;;;;;;6.30;4.38;;;17.50;80.00;;;;;;5049836;28;20021;-46
2022/07/24 06:34:06;;;;;;;4.80;4.32;;;17.60;79.60;;;;;;5032272;28;20430;-45
2022/07/24 06:36:33;;;;;;;7.47;3.85;;;17.70;79.60;;;;;;5048769;28;20033;-46
2022/07/24 06:39:00;;;;;;;6.95;4.22;;;17.80;79.40;;;;;;5050185;28;20047;-45
2022/07/24 06:41:26;;;;;;;5.65;4.22;;;17.90;79.20;;;;;;5048490;28;20036;-46
2022/07/24 06:43:56;;;;;;;7.25;4.93;;;17.90;79.40;;;;;;5049773;28;20025;-46
2022/07/24 06:46:23;;;;;;;8.05;3.90;;;18.10;79.50;;;;;;5060338;28;20060;-45
2022/07/24 06:48:50;;;;;;;4.57;3.60;;;18.20;79.70;;;;;;5029942;28;20051;-45
2022/07/24 06:51:17;;;;;;;5.28;3.83;;;18.40;78.90;;;;;;5029583;28;20029;-45
2022/07/24 06:53:46;;;;;;;8.35;3.60;;;18.60;78.30;;;;;;5012179;28;20021;-45
2022/07/24 06:56:13;;;;;;;4.22;3.45;;;18.80;78.30;;;;;;5029811;28;20040;-47
2022/07/24 06:58:40;;;;;;;4.30;3.45;;;19.20;77.40;;;;;;5029597;28;20049;-46
2022/07/24 07:01:07;;;;;;;6.28;3.30;;;19.40;76.10;;;;;;5029752;28;20029;-46
2022/07/24 07:03:34;;;;;;;5.18;3.13;;;19.60;75.90;;;;;;5029630;28;20039;-47
2022/07/24 07:06:00;;;;;;;6.47;3.60;;;19.60;75.60;;;;;;5029523;28;20056;-46
2022/07/24 07:08:27;;;;;;;5.32;3.67;;;19.80;74.90;;;;;;5029618;28;20350;-47
2022/07/24 07:10:54;;;;;;;5.38;3.80;;;19.80;74.80;;;;;;5029457;28;20341;-45
2022/07/24 07:13:21;;;;;;;5.20;3.20;;;19.80;74.50;;;;;;5029338;28;20114;-47
2022/07/24 07:15:48;;;;;;;6.45;3.00;;;19.90;75.00;;;;;;5029329;28;20040;-46
2022/07/24 07:18:15;;;;;;;6.53;3.35;;;20.10;73.60;;;;;;5028301;28;20021;-46
2022/07/24 07:20:42;;;;;;;5.50;3.97;;;20.20;74.00;;;;;;5029214;28;20039;-46
2022/07/24 07:23:09;;;;;;;5.90;3.17;;;20.40;72.90;;;;;;5029543;28;20022;-46
2022/07/24 07:25:36;;;;;;;7.47;3.40;;;20.40;73.50;;;;;;5029406;28;20038;-46
2022/07/24 07:28:05;;;;;;;5.25;3.65;;;20.70;72.20;;;;;;5029171;28;20025;-46
2022/07/24 07:30:35;;;;;;;6.75;3.72;;;20.80;71.70;;;;;;5031419;28;20025;-46
2022/07/24 07:33:02;;;;;;;4.53;3.30;;;20.90;71.10;;;;;;5033225;28;20458;-46
2022/07/24 07:35:29;;;;;;;5.50;3.88;;;21.10;71.50;;;;;;5033319;28;20116;-47
2022/07/24 07:37:55;;;;;;;4.32;3.45;;;21.10;70.00;;;;;;5033337;28;20040;-47
2022/07/24 07:40:22;;;;;;;4.70;3.08;;;21.10;71.10;;;;;;5033369;28;20025;-47
2022/07/24 07:42:49;;;;;;;7.47;4.22;;;21.20;71.20;;;;;;5015746;28;20025;-46
2022/07/24 07:45:18;;;;;;;4.97;3.42;;;21.40;70.80;;;;;;5033208;28;20060;-46
2022/07/24 07:47:47;;;;;;;7.50;3.90;;;21.70;70.50;;;;;;5048973;28;20068;-46
2022/07/24 07:50:14;;;;;;;4.73;3.67;;;22.10;69.20;;;;;;5051849;28;20103;-47
2022/07/24 07:52:43;;;;;;;5.38;4.05;;;22.30;68.10;;;;;;5052778;28;20458;-47
2022/07/24 07:55:10;;;;;;;4.35;3.60;;;22.30;67.00;;;;;;5035225;28;20132;-47
2022/07/24 07:57:41;;;;;;;5.90;3.38;;;22.30;67.60;;;;;;5035435;28;20121;-48
2022/07/24 08:00:08;;;;;;;4.75;3.33;;;22.30;68.80;;;;;;5052784;28;20111;-47
2022/07/24 08:02:34;;;;;;;4.65;3.45;;;22.30;68.10;;;;;;5052298;28;20366;-48
2022/07/24 08:05:00;;;;;;;6.53;3.63;;;22.40;68.50;;;;;;5052439;28;20036;-48
2022/07/24 08:07:27;;;;;;;4.95;4.13;;;22.50;68.20;;;;;;5051687;28;20021;-47
2022/07/24 08:09:54;;;;;;;5.53;3.67;;;22.60;68.10;;;;;;5052511;28;20036;-47
2022/07/24 08:12:21;;;;;;;8.35;4.20;;;22.60;68.20;;;;;;5051446;28;20025;-48
2022/07/24 08:14:50;;;;;;;5.55;5.00;;;22.70;67.60;;;;;;5052273;28;20033;-49
2022/07/24 08:17:16;;;;;;;6.55;4.53;;;22.80;66.50;;;;;;5052048;28;20045;-48
2022/07/24 08:19:43;;;;;;;6.10;4.30;;;22.90;66.70;;;;;;5051902;28;20040;-47
2022/07/24 08:22:12;;;;;;;4.65;4.07;;;23.00;67.00;;;;;;5034444;28;20025;-49
2022/07/24 08:24:39;;;;;;;;;;;23.10;66.00;;;;;;5034866;28;20709;-47
2022/07/24 08:27:06;;;;;;;4.90;4.40;;;23.00;67.10;;;;;;5051761;28;20337;-47
2022/07/24 08:29:34;;;;;;;5.47;4.75;;;23.00;66.40;;;;;;5051836;28;20025;-49
2022/07/24 08:32:02;;;;;;;6.78;4.93;;;23.10;66.40;;;;;;5052260;28;20096;-47
2022/07/24 08:34:29;;;;;;;6.70;4.05;;;23.40;65.20;;;;;;5050748;28;20026;-47
2022/07/24 08:36:56;;;;;;;5.30;4.35;;;23.90;65.10;;;;;;5052259;28;20109;-48
2022/07/24 08:39:23;;;;;;;5.10;4.00;;;24.70;62.90;;;;;;5050905;28;20025;-47
2022/07/24 08:41:49;;;;;;;7.10;4.82;;;25.40;62.80;;;;;;5050970;28;20029;-47
2022/07/24 08:44:16;;;;;;;6.18;4.90;;;25.90;58.40;;;;;;5050463;28;20170;-49
2022/07/24 08:46:44;;;;;;;6.55;5.00;;;25.90;57.80;;;;;;5051351;28;20681;-50
2022/07/24 08:49:13;;;;;;;7.28;4.53;;;26.20;58.00;;;;;;5051293;28;20351;-50
2022/07/24 08:51:46;;;;;;;5.00;3.97;;;26.50;56.00;;;;;;5051745;28;20021;-50
2022/07/24 08:54:16;;;;;;;5.45;3.88;;;26.60;56.70;;;;;;5051599;28;20025;-51
2022/07/24 08:56:43;;;;;;;5.15;4.22;;;27.10;56.60;;;;;;5050489;28;20039;-47
2022/07/24 08:59:21;;;;;;;7.25;4.38;;;27.10;54.70;;;;;;5051450;28;20029;-48
2022/07/24 09:01:47;;;;;;;8.13;4.45;;;27.20;53.80;;;;;;5051403;28;20025;-48
2022/07/24 09:04:37;;;;;;;8.90;4.72;;;27.20;55.40;;;;;;5067325;28;20033;-49
2022/07/24 09:07:24;;;;;;;5.10;3.97;;;27.40;56.50;;;;;;5050209;28;20025;-47
2022/07/24 09:10:07;;;;;;;6.65;4.57;;;27.80;54.90;;;;;;5051185;28;20021;-49
2022/07/24 09:12:41;;;;;;;5.45;4.20;;;27.60;53.70;;;;;;5051591;28;20322;-48
2022/07/24 09:15:29;;;;;;;7.20;4.60;;;27.70;53.90;;;;;;5051317;28;20451;-48
2022/07/24 09:17:58;;;;;;;7.10;4.45;;;27.90;53.00;;;;;;5050597;28;20074;-53
2022/07/24 09:20:27;;;;;;;5.70;4.57;;;27.80;53.30;;;;;;5050968;28;20032;-48
2022/07/24 09:22:57;;;;;;;5.63;4.85;;;28.00;52.60;;;;;;5033364;28;20724;-52
2022/07/24 09:25:26;;;;;;;6.45;4.60;;;27.90;52.20;;;;;;5050683;28;20040;-48
2022/07/24 09:27:58;;;;;;;7.38;3.88;;;27.60;54.10;;;;;;5050972;28;20024;-50
2022/07/24 09:30:34;;;;;;;7.80;4.63;;;27.60;55.60;;;;;;5033393;28;20036;-49
2022/07/24 09:33:03;;;;;;;5.10;4.15;;;27.90;53.80;;;;;;5051133;28;20470;-48
2022/07/24 09:35:51;;;;;;;9.27;5.70;;;27.90;54.30;;;;;;5051098;28;20037;-48
2022/07/24 09:38:24;;;;;;;8.20;5.45;;;28.20;51.80;;;;;;5050787;28;20101;-48
2022/07/24 09:40:55;;;;;;;7.95;5.60;;;27.80;52.50;;;;;;5051004;28;20028;-52
2022/07/24 09:43:30;;;;;;;8.73;6.15;;;27.70;54.00;;;;;;5050810;28;20128;-48
2022/07/24 09:46:03;;;;;;;5.85;5.25;;;27.90;53.00;;;;;;5032996;28;20092;-47
2022/07/24 09:48:32;;;;;;;7.60;4.85;;;27.60;52.60;;;;;;5050332;28;20108;-48
2022/07/24 09:51:03;;;;;;;5.65;4.85;;;27.40;54.70;;;;;;5050412;28;20025;-53
2022/07/24 09:53:33;;;;;;;6.07;5.25;;;27.50;54.70;;;;;;5049887;28;20037;-50
2022/07/24 09:56:18;;;;;;;6.60;5.90;;;27.40;56.30;;;;;;5032797;28;20087;-48
2022/07/24 09:59:07;;;;;;;6.30;4.90;;;27.80;55.40;;;;;;5049957;28;20057;-48
2022/07/24 10:01:37;;;;;;;6.90;5.75;;;27.80;53.80;;;;;;5050036;28;20028;-52
2022/07/24 10:04:06;;;;;;;12.93;7.93;;;27.40;54.90;;;;;;5049806;28;20115;-47
2022/07/24 10:06:37;;;;;;;8.65;5.50;;;27.30;55.00;;;;;;5049779;28;20104;-47
2022/07/24 10:09:05;;;;;;;9.75;7.47;;;27.30;56.30;;;;;;5049617;28;20079;-48
2022/07/24 10:11:35;;;;;;;7.85;6.57;;;27.40;56.30;;;;;;5049807;28;20346;-48
2022/07/24 10:14:02;;;;;;;7.15;6.47;;;27.30;56.00;;;;;;5049559;28;20049;-47
2022/07/24 10:16:32;;;;;;;8.90;6.75;;;27.20;56.40;;;;;;5048492;28;20599;-49
2022/07/24 10:19:08;;;;;;;7.50;6.68;;;27.30;56.10;;;;;;5049546;28;20354;-47
2022/07/24 10:21:37;;;;;;;9.50;6.78;;;26.80;55.10;;;;;;5049576;28;20017;-47
2022/07/24 10:24:14;;;;;;;9.07;6.70;;;26.30;56.80;;;;;;5031857;28;20079;-47
2022/07/24 10:26:41;;;;;;;7.97;6.82;;;26.00;57.60;;;;;;5048299;28;20118;-46
2022/07/24 10:29:15;;;;;;;8.10;6.47;;;25.80;58.30;;;;;;5049556;28;20053;-47
2022/07/24 10:31:50;;;;;;;6.22;5.60;;;25.50;58.60;;;;;;5049180;28;20033;-51
2022/07/24 10:34:40;;;;;;;7.43;5.80;;;25.40;61.80;;;;;;5049309;28;20377;-51
2022/07/24 10:37:47;;;;;;;7.35;6.60;;;25.30;62.60;;;;;;5048188;28;20052;-47
2022/07/24 10:40:50;;;;;;;8.70;6.82;;;25.70;63.50;;;;;;5048282;28;20520;-50
2022/07/24 10:43:18;;;;;;;8.18;6.30;;;25.90;61.00;;;;;;5047860;28;20584;-48
2022/07/24 10:46:09;;;;;;;6.28;4.82;;;26.60;58.80;;;;;;5047731;28;20437;-48
2022/07/24 10:48:40;;;;;;;4.93;4.43;;;27.20;59.30;;;;;;5048663;28;20057;-48
2022/07/24 10:51:25;;;;;;;7.13;4.57;;;27.60;55.60;;;;;;5048857;28;20028;-48
2022/07/24 10:53:54;;;;;;;5.78;4.47;;;27.90;52.00;;;;;;5049057;28;20100;-48
2022/07/24 10:56:29;;;;;;;8.35;4.72;;;28.00;50.90;;;;;;5048873;28;20025;-48
2022/07/24 10:59:13;;;;;;;5.38;4.72;;;28.20;52.30;;;;;;5048898;28;20400;-47
2022/07/24 11:01:44;;;;;;;9.40;5.30;;;28.10;52.30;;;;;;5048895;28;20025;-48
2022/07/24 11:04:22;;;;;;;5.93;4.47;;;27.80;51.80;;;;;;5046814;28;20070;-52
2022/07/24 11:07:13;;;;;;;6.57;4.65;;;27.50;53.40;;;;;;5048710;28;20021;-47
2022/07/24 11:10:07;;;;;;;5.80;3.92;;;27.50;53.40;;;;;;5048574;28;20473;-48
2022/07/24 11:12:47;;;;;;;4.60;3.65;;;27.30;52.30;;;;;;5031661;28;20207;-49
2022/07/24 11:18:20;;;;;;;5.53;4.05;;;27.00;49.80;;;;;;5049254;28;20071;-48
2022/07/24 11:20:46;;;;;;;6.05;5.00;;;26.80;53.20;;;;;;5049365;28;20045;-48
2022/07/24 11:23:22;;;;;;;5.57;4.05;;;27.10;53.20;;;;;;5049462;28;20465;-47
2022/07/24 11:25:48;;;;;;;6.90;5.03;;;27.30;52.90;;;;;;5064928;28;20056;-48
2022/07/24 11:28:15;;;;;;;5.03;4.35;;;27.30;51.90;;;;;;5048123;28;20339;-49
2022/07/24 11:30:47;;;;;;;4.90;4.32;;;27.20;53.50;;;;;;5031461;28;20466;-48
2022/07/24 11:33:21;;;;;;;5.15;3.72;;;27.40;54.40;;;;;;5063420;28;20081;-47
2022/07/24 11:35:47;;;;;;;5.63;3.22;;;27.50;51.80;;;;;;5049075;28;20056;-48
2022/07/24 11:38:16;;;;;;;4.35;3.13;;;27.90;53.20;;;;;;5049027;28;20040;-47
2022/07/24 11:40:45;;;;;;;5.72;3.95;;;28.10;52.00;;;;;;5047936;28;20029;-48
2022/07/24 11:43:12;;;;;;;6.40;4.18;;;28.20;51.60;;;;;;5048977;28;20036;-47
2022/07/24 11:45:39;;;;;;;4.72;3.30;;;27.90;51.80;;;;;;5048920;28;20190;-48
2022/07/24 11:48:07;;;;;;;4.18;3.75;;;27.90;52.50;;;;;;5049030;28;20037;-47
2022/07/24 11:50:34;;;;;;;5.80;3.65;;;27.90;51.50;;;;;;5048876;28;20462;-47
2022/07/24 11:53:08;;;;;;;5.32;3.80;;;27.90;53.10;;;;;;5049128;28;20081;-48
2022/07/24 11:55:35;;;;;;;4.80;3.80;;;28.20;52.80;;;;;;5048767;28;20106;-48
2022/07/24 11:58:04;;;;;;;4.85;3.78;;;28.10;51.80;;;;;;5048901;28;20021;-48
2022/07/24 12:00:31;;;;;;;14.50;4.85;;;28.30;52.50;;;;;;5048934;28;20029;-48
2022/07/24 12:03:03;;;;;;;5.90;3.33;;;28.40;51.80;;;;;;5048916;28;20505;-48
2022/07/24 12:05:48;;;;;;;4.93;3.38;;;28.40;52.10;;;;;;5048951;28;20426;-48
2022/07/24 12:08:26;;;;;;;6.68;3.15;;;28.10;51.20;;;;;;5048844;28;20091;-47
2022/07/24 12:11:11;;;;;;;6.50;3.40;;;27.90;50.30;;;;;;5048652;28;20071;-47
2022/07/24 12:13:42;;;;;;;5.40;3.80;;;27.70;50.60;;;;;;5047962;28;20017;-48
2022/07/24 12:16:09;;;;;;;5.55;3.38;;;27.60;52.90;;;;;;5034176;28;20033;-47
2022/07/24 12:18:36;;;;;;;4.30;3.42;;;27.70;53.50;;;;;;5052580;28;20442;-48
2022/07/24 12:21:03;;;;;;;5.35;3.67;;;27.90;53.30;;;;;;5052365;28;20104;-48
2022/07/24 12:23:33;;;;;;;4.57;3.33;;;28.10;52.80;;;;;;5068349;28;20040;-47
2022/07/24 12:26:01;;;;;;;5.90;3.80;;;27.90;51.90;;;;;;5051403;28;20373;-48
2022/07/24 12:28:30;;;;;;;4.93;3.47;;;27.90;53.00;;;;;;5052386;28;20025;-47
2022/07/24 12:30:57;;;;;;;5.78;3.78;;;27.90;51.50;;;;;;5052096;28;20028;-48
2022/07/24 12:33:29;;;;;;;5.70;3.47;;;27.80;51.50;;;;;;5052053;28;20029;-48
2022/07/24 12:36:15;;;;;;;8.15;3.78;;;27.90;52.80;;;;;;5034685;28;20454;-50
2022/07/24 12:38:59;;;;;;;6.13;3.28;;;28.10;53.10;;;;;;5052348;28;20078;-49
2022/07/24 12:41:30;;;;;;;4.85;3.30;;;28.30;51.00;;;;;;5052191;28;20025;-48
2022/07/24 12:44:15;;;;;;;5.75;3.90;;;28.30;52.20;;;;;;5051015;28;20032;-51
2022/07/24 12:46:45;;;;;;;3.90;2.75;;;28.40;51.90;;;;;;5051833;28;20102;-49
2022/07/24 12:49:18;;;;;;;5.53;3.58;;;28.20;52.10;;;;;;5051903;28;20032;-47
2022/07/24 12:51:53;;;;;;;4.90;3.17;;;27.80;49.90;;;;;;5051509;28;20029;-47
2022/07/24 12:54:34;;;;;;;5.47;3.00;;;27.60;52.00;;;;;;5050262;28;20036;-54
2022/07/24 12:57:09;;;;;;;4.25;3.25;;;27.50;52.70;;;;;;5051625;28;20082;-47
2022/07/24 12:59:44;;;;;;;5.35;2.60;;;27.60;53.20;;;;;;5051525;28;20081;-49